sensor_id;sensor_type;location;lat;lon;timestamp;temperature;humidity
30001;DHT22;16845;48.670;9.000;2022-11-15T00:01:11;7.70;99.90
30001;DHT22;16845;48.670;9.000;2022-11-15T00:03:43;7.70;99.90
30001;DHT22;16845;48.670;9.000;2022-11-15T00:06:10;7.60;99.90
30001;DHT22;16845;48.670;9.000;2022-11-15T00:08:39;7.60;99.90
30001;DHT22;16845;48.670;9.000;2022-11-15T00:11:10;7.50;99.90
30001;DHT22;16845;48.670;9.000;2022-11-15T00:13:39;7.50;99.90
30001;DHT22;16845;48.670;9.000;2022-11-15T00:16:08;7.50;99.90
30001;DHT22;16845;48.670;9.000;2022-11-15T00:18:37;7.50;99.90
30001;DHT22;16845;48.670;9.000;2022-11-15T00:21:09;7.40;99.90
30001;DHT22;16845;48.670;9.000;2022-11-15T00:23:37;7.40;99.90
30001;DHT22;16845;48.670;9.000;2022-11-15T00:26:05;7.40;99.90
30001;DHT22;16845;48.670;9.000;2022-11-15T00:28:33;7.40;99.90
30001;DHT22;16845;48.670;9.000;2022-11-15T00:31:02;7.40;99.90
30001;DHT22;16845;48.670;9.000;2022-11-15T00:33:31;7.30;99.90
30001;DHT22;16845;48.670;9.000;2022-11-15T00:36:01;7.20;99.90
30001;DHT22;16845;48.670;9.000;2022-11-15T00:38:32;7.20;99.90
30001;DHT22;16845;48.670;9.000;2022-11-15T00:41:01;7.20;99.90
30001;DHT22;16845;48.670;9.000;2022-11-15T00:43:35;7.10;99.90
30001;DHT22;16845;48.670;9.000;2022-11-15T00:46:03;7.10;99.90
30001;DHT22;16845;48.670;9.000;2022-11-15T00:48:31;7.00;99.90
30001;DHT22;16845;48.670;9.000;2022-11-15T00:50:59;7.00;99.90
30001;DHT22;16845;48.670;9.000;2022-11-15T00:53:27;6.90;99.90
30001;DHT22;16845;48.670;9.000;2022-11-15T00:55:57;6.90;99.90
30001;DHT22;16845;48.670;9.000;2022-11-15T00:58:25;6.90;99.90
30001;DHT22;16845;48.670;9.000;2022-11-15T01:00:53;6.80;99.90
30001;DHT22;16845;48.670;9.000;2022-11-15T01:03:21;6.80;99.90
30001;DHT22;16845;48.670;9.000;2022-11-15T01:05:49;6.70;99.90
30001;DHT22;16845;48.670;9.000;2022-11-15T01:08:17;6.70;99.90
30001;DHT22;16845;48.670;9.000;2022-11-15T01:10:45;6.70;99.90
30001;DHT22;16845;48.670;9.000;2022-11-15T01:13:14;6.80;99.90
30001;DHT22;16845;48.670;9.000;2022-11-15T01:15:43;7.00;99.90
30001;DHT22;16845;48.670;9.000;2022-11-15T01:18:11;7.10;99.90
30001;DHT22;16845;48.670;9.000;2022-11-15T01:20:40;7.10;99.90
30001;DHT22;16845;48.670;9.000;2022-11-15T01:23:08;7.20;99.90
30001;DHT22;16845;48.670;9.000;2022-11-15T01:25:36;7.20;99.90
30001;DHT22;16845;48.670;9.000;2022-11-15T01:28:04;7.10;99.90
30001;DHT22;16845;48.670;9.000;2022-11-15T01:30:35;7.10;99.90
30001;DHT22;16845;48.670;9.000;2022-11-15T01:33:03;7.20;99.90
30001;DHT22;16845;48.670;9.000;2022-11-15T01:35:31;7.30;99.90
30001;DHT22;16845;48.670;9.000;2022-11-15T01:37:59;7.30;99.90
30001;DHT22;16845;48.670;9.000;2022-11-15T01:40:27;7.30;99.90
30001;DHT22;16845;48.670;9.000;2022-11-15T01:42:55;7.30;99.90
30001;DHT22;16845;48.670;9.000;2022-11-15T01:45:23;7.20;99.90
30001;DHT22;16845;48.670;9.000;2022-11-15T01:47:54;7.20;99.90
30001;DHT22;16845;48.670;9.000;2022-11-15T01:50:26;7.30;99.90
30001;DHT22;16845;48.670;9.000;2022-11-15T01:52:56;7.30;99.90
30001;DHT22;16845;48.670;9.000;2022-11-15T01:55:26;7.50;99.90
30001;DHT22;16845;48.670;9.000;2022-11-15T01:57:56;7.50;99.90
30001;DHT22;16845;48.670;9.000;2022-11-15T02:00:25;7.50;99.90
30001;DHT22;16845;48.670;9.000;2022-11-15T02:02:55;7.50;99.90
30001;DHT22;16845;48.670;9.000;2022-11-15T02:05:23;7.60;99.90
30001;DHT22;16845;48.670;9.000;2022-11-15T02:07:51;7.60;99.90
30001;DHT22;16845;48.670;9.000;2022-11-15T02:10:21;7.60;99.90
30001;DHT22;16845;48.670;9.000;2022-11-15T02:12:49;7.60;99.90
30001;DHT22;16845;48.670;9.000;2022-11-15T02:15:18;7.80;99.90
30001;DHT22;16845;48.670;9.000;2022-11-15T02:18:01;7.70;99.90
30001;DHT22;16845;48.670;9.000;2022-11-15T02:20:41;7.80;99.90
30001;DHT22;16845;48.670;9.000;2022-11-15T02:23:35;7.90;99.90
30001;DHT22;16845;48.670;9.000;2022-11-15T02:26:28;7.90;99.90
30001;DHT22;16845;48.670;9.000;2022-11-15T02:29:01;7.90;99.90
30001;DHT22;16845;48.670;9.000;2022-11-15T02:31:39;7.80;99.90
30001;DHT22;16845;48.670;9.000;2022-11-15T02:34:15;7.90;99.90
30001;DHT22;16845;48.670;9.000;2022-11-15T02:36:52;7.80;99.90
30001;DHT22;16845;48.670;9.000;2022-11-15T02:39:28;7.70;99.90
30001;DHT22;16845;48.670;9.000;2022-11-15T02:42:02;7.60;99.90
30001;DHT22;16845;48.670;9.000;2022-11-15T02:44:35;7.60;99.90
30001;DHT22;16845;48.670;9.000;2022-11-15T02:47:08;7.70;99.90
30001;DHT22;16845;48.670;9.000;2022-11-15T02:49:43;7.80;99.90
30001;DHT22;16845;48.670;9.000;2022-11-15T02:52:15;7.90;99.90
30001;DHT22;16845;48.670;9.000;2022-11-15T02:54:53;7.90;99.90
30001;DHT22;16845;48.670;9.000;2022-11-15T02:57:30;7.90;99.90
30001;DHT22;16845;48.670;9.000;2022-11-15T03:00:07;8.10;99.90
30001;DHT22;16845;48.670;9.000;2022-11-15T03:02:53;8.20;99.90
30001;DHT22;16845;48.670;9.000;2022-11-15T03:05:28;8.30;99.90
30001;DHT22;16845;48.670;9.000;2022-11-15T03:08:02;8.30;99.90
30001;DHT22;16845;48.670;9.000;2022-11-15T03:10:40;8.40;99.90
30001;DHT22;16845;48.670;9.000;2022-11-15T03:13:18;8.50;99.90
30001;DHT22;16845;48.670;9.000;2022-11-15T03:15:52;8.60;99.90
30001;DHT22;16845;48.670;9.000;2022-11-15T03:18:29;8.50;99.90
30001;DHT22;16845;48.670;9.000;2022-11-15T03:20:59;8.50;99.90
30001;DHT22;16845;48.670;9.000;2022-11-15T03:23:28;8.40;99.90
30001;DHT22;16845;48.670;9.000;2022-11-15T03:25:58;8.30;99.90
30001;DHT22;16845;48.670;9.000;2022-11-15T03:28:31;8.20;99.90
30001;DHT22;16845;48.670;9.000;2022-11-15T03:31:01;8.10;99.90
30001;DHT22;16845;48.670;9.000;2022-11-15T03:33:54;8.10;99.90
30001;DHT22;16845;48.670;9.000;2022-11-15T03:36:24;8.20;99.90
30001;DHT22;16845;48.670;9.000;2022-11-15T03:38:54;8.30;99.90
30001;DHT22;16845;48.670;9.000;2022-11-15T03:41:29;8.20;99.90
30001;DHT22;16845;48.670;9.000;2022-11-15T03:44:04;8.20;99.90
30001;DHT22;16845;48.670;9.000;2022-11-15T03:46:36;8.20;99.90
30001;DHT22;16845;48.670;9.000;2022-11-15T03:49:10;8.20;99.90
30001;DHT22;16845;48.670;9.000;2022-11-15T03:51:39;8.20;99.90
30001;DHT22;16845;48.670;9.000;2022-11-15T03:54:08;8.20;99.90
30001;DHT22;16845;48.670;9.000;2022-11-15T03:56:36;8.10;99.90
30001;DHT22;16845;48.670;9.000;2022-11-15T03:59:04;8.10;99.90
30001;DHT22;16845;48.670;9.000;2022-11-15T04:01:32;8.10;99.90
30001;DHT22;16845;48.670;9.000;2022-11-15T04:04:00;8.20;99.90
30001;DHT22;16845;48.670;9.000;2022-11-15T04:06:29;8.20;99.90
30001;DHT22;16845;48.670;9.000;2022-11-15T04:08:57;8.30;99.90
30001;DHT22;16845;48.670;9.000;2022-11-15T04:11:25;8.10;99.90
30001;DHT22;16845;48.670;9.000;2022-11-15T04:13:53;8.10;99.90
30001;DHT22;16845;48.670;9.000;2022-11-15T04:16:21;8.00;99.90
30001;DHT22;16845;48.670;9.000;2022-11-15T04:18:49;7.90;99.90
30001;DHT22;16845;48.670;9.000;2022-11-15T04:21:38;7.90;99.90
30001;DHT22;16845;48.670;9.000;2022-11-15T04:24:24;7.90;99.90
30001;DHT22;16845;48.670;9.000;2022-11-15T04:26:51;7.90;99.90
30001;DHT22;16845;48.670;9.000;2022-11-15T04:29:19;7.90;99.90
30001;DHT22;16845;48.670;9.000;2022-11-15T04:32:03;8.00;99.90
30001;DHT22;16845;48.670;9.000;2022-11-15T04:34:32;8.00;99.90
30001;DHT22;16845;48.670;9.000;2022-11-15T04:37:02;8.10;99.90
30001;DHT22;16845;48.670;9.000;2022-11-15T04:39:43;8.00;99.90
30001;DHT22;16845;48.670;9.000;2022-11-15T04:42:11;8.00;99.90
30001;DHT22;16845;48.670;9.000;2022-11-15T04:44:39;7.90;99.90
30001;DHT22;16845;48.670;9.000;2022-11-15T04:47:06;7.90;99.90
30001;DHT22;16845;48.670;9.000;2022-11-15T04:49:34;7.90;99.90
30001;DHT22;16845;48.670;9.000;2022-11-15T04:52:04;7.90;99.90
30001;DHT22;16845;48.670;9.000;2022-11-15T04:54:32;7.80;99.90
30001;DHT22;16845;48.670;9.000;2022-11-15T04:57:00;7.80;99.90
30001;DHT22;16845;48.670;9.000;2022-11-15T04:59:28;7.70;99.90
30001;DHT22;16845;48.670;9.000;2022-11-15T05:01:56;7.60;99.90
30001;DHT22;16845;48.670;9.000;2022-11-15T05:04:24;7.50;99.90
30001;DHT22;16845;48.670;9.000;2022-11-15T05:06:51;7.40;99.90
30001;DHT22;16845;48.670;9.000;2022-11-15T05:09:20;7.40;99.90
30001;DHT22;16845;48.670;9.000;2022-11-15T05:11:48;7.40;99.90
30001;DHT22;16845;48.670;9.000;2022-11-15T05:14:16;7.40;99.90
30001;DHT22;16845;48.670;9.000;2022-11-15T05:16:44;7.30;99.90
30001;DHT22;16845;48.670;9.000;2022-11-15T05:19:12;7.40;99.90
30001;DHT22;16845;48.670;9.000;2022-11-15T05:21:40;7.40;99.90
30001;DHT22;16845;48.670;9.000;2022-11-15T05:24:09;7.40;99.90
30001;DHT22;16845;48.670;9.000;2022-11-15T05:26:39;7.40;99.90
30001;DHT22;16845;48.670;9.000;2022-11-15T05:29:09;7.40;99.90
30001;DHT22;16845;48.670;9.000;2022-11-15T05:31:39;7.40;99.90
30001;DHT22;16845;48.670;9.000;2022-11-15T05:34:09;7.40;99.90
30001;DHT22;16845;48.670;9.000;2022-11-15T05:36:38;7.40;99.90
30001;DHT22;16845;48.670;9.000;2022-11-15T05:39:08;7.50;99.90
30001;DHT22;16845;48.670;9.000;2022-11-15T05:41:41;7.60;99.90
30001;DHT22;16845;48.670;9.000;2022-11-15T05:44:12;7.60;99.90
30001;DHT22;16845;48.670;9.000;2022-11-15T05:46:42;7.50;99.90
30001;DHT22;16845;48.670;9.000;2022-11-15T05:49:13;7.50;99.90
30001;DHT22;16845;48.670;9.000;2022-11-15T05:51:44;7.40;99.90
30001;DHT22;16845;48.670;9.000;2022-11-15T05:54:12;7.40;99.90
30001;DHT22;16845;48.670;9.000;2022-11-15T05:56:43;7.30;99.90
30001;DHT22;16845;48.670;9.000;2022-11-15T05:59:12;7.30;99.90
30001;DHT22;16845;48.670;9.000;2022-11-15T06:01:40;7.20;99.90
30001;DHT22;16845;48.670;9.000;2022-11-15T06:04:08;7.20;99.90
30001;DHT22;16845;48.670;9.000;2022-11-15T06:06:36;7.10;99.90
30001;DHT22;16845;48.670;9.000;2022-11-15T06:09:04;7.10;99.90
30001;DHT22;16845;48.670;9.000;2022-11-15T06:11:32;7.10;99.90
30001;DHT22;16845;48.670;9.000;2022-11-15T06:14:01;7.10;99.90
30001;DHT22;16845;48.670;9.000;2022-11-15T06:16:29;7.20;99.90
30001;DHT22;16845;48.670;9.000;2022-11-15T06:18:57;7.20;99.90
30001;DHT22;16845;48.670;9.000;2022-11-15T06:21:25;7.20;99.90
30001;DHT22;16845;48.670;9.000;2022-11-15T06:23:54;7.20;99.90
30001;DHT22;16845;48.670;9.000;2022-11-15T06:26:22;7.20;99.90
30001;DHT22;16845;48.670;9.000;2022-11-15T06:28:50;7.20;99.90
30001;DHT22;16845;48.670;9.000;2022-11-15T06:31:19;7.20;99.90
30001;DHT22;16845;48.670;9.000;2022-11-15T06:33:47;7.10;99.90
30001;DHT22;16845;48.670;9.000;2022-11-15T06:36:16;7.10;99.90
30001;DHT22;16845;48.670;9.000;2022-11-15T06:38:45;7.10;99.90
30001;DHT22;16845;48.670;9.000;2022-11-15T06:41:13;7.00;99.90
30001;DHT22;16845;48.670;9.000;2022-11-15T06:43:41;7.10;99.90
30001;DHT22;16845;48.670;9.000;2022-11-15T06:46:09;7.10;99.90
30001;DHT22;16845;48.670;9.000;2022-11-15T06:48:39;7.20;99.90
30001;DHT22;16845;48.670;9.000;2022-11-15T06:51:07;7.30;99.90
30001;DHT22;16845;48.670;9.000;2022-11-15T06:53:35;7.50;99.90
30001;DHT22;16845;48.670;9.000;2022-11-15T06:56:04;7.60;99.90
30001;DHT22;16845;48.670;9.000;2022-11-15T06:58:33;7.70;99.90
30001;DHT22;16845;48.670;9.000;2022-11-15T07:01:03;7.70;99.90
30001;DHT22;16845;48.670;9.000;2022-11-15T07:03:33;7.70;99.90
30001;DHT22;16845;48.670;9.000;2022-11-15T07:06:03;7.70;99.90
30001;DHT22;16845;48.670;9.000;2022-11-15T07:08:34;7.80;99.90
30001;DHT22;16845;48.670;9.000;2022-11-15T07:11:04;7.80;99.90
30001;DHT22;16845;48.670;9.000;2022-11-15T07:13:33;7.90;99.90
30001;DHT22;16845;48.670;9.000;2022-11-15T07:16:03;7.90;99.90
30001;DHT22;16845;48.670;9.000;2022-11-15T07:18:34;7.90;99.90
30001;DHT22;16845;48.670;9.000;2022-11-15T07:21:04;8.00;99.90
30001;DHT22;16845;48.670;9.000;2022-11-15T07:23:33;8.00;99.90
30001;DHT22;16845;48.670;9.000;2022-11-15T07:26:03;8.10;99.90
30001;DHT22;16845;48.670;9.000;2022-11-15T07:28:31;8.20;99.90
30001;DHT22;16845;48.670;9.000;2022-11-15T07:31:02;8.30;99.90
30001;DHT22;16845;48.670;9.000;2022-11-15T07:33:30;8.50;99.90
30001;DHT22;16845;48.670;9.000;2022-11-15T07:35:59;8.70;99.90
30001;DHT22;16845;48.670;9.000;2022-11-15T07:38:30;8.90;99.90
30001;DHT22;16845;48.670;9.000;2022-11-15T07:40:59;9.20;99.90
30001;DHT22;16845;48.670;9.000;2022-11-15T07:43:27;9.30;99.90
30001;DHT22;16845;48.670;9.000;2022-11-15T07:45:56;9.40;99.90
30001;DHT22;16845;48.670;9.000;2022-11-15T07:48:25;9.60;99.90
30001;DHT22;16845;48.670;9.000;2022-11-15T07:51:11;9.60;99.90
30001;DHT22;16845;48.670;9.000;2022-11-15T07:53:41;9.80;99.90
30001;DHT22;16845;48.670;9.000;2022-11-15T07:56:10;10.00;99.90
30001;DHT22;16845;48.670;9.000;2022-11-15T07:58:38;10.00;99.90
30001;DHT22;16845;48.670;9.000;2022-11-15T08:01:07;10.00;99.90
30001;DHT22;16845;48.670;9.000;2022-11-15T08:03:36;10.00;99.90
30001;DHT22;16845;48.670;9.000;2022-11-15T08:06:04;10.00;99.90
30001;DHT22;16845;48.670;9.000;2022-11-15T08:08:32;10.00;99.90
30001;DHT22;16845;48.670;9.000;2022-11-15T08:11:02;10.00;99.90
30001;DHT22;16845;48.670;9.000;2022-11-15T08:13:30;10.00;99.90
30001;DHT22;16845;48.670;9.000;2022-11-15T08:15:59;9.90;99.90
30001;DHT22;16845;48.670;9.000;2022-11-15T08:18:27;9.90;99.90
30001;DHT22;16845;48.670;9.000;2022-11-15T08:20:58;9.90;99.90
30001;DHT22;16845;48.670;9.000;2022-11-15T08:23:27;10.00;99.90
30001;DHT22;16845;48.670;9.000;2022-11-15T08:25:59;10.20;99.90
30001;DHT22;16845;48.670;9.000;2022-11-15T08:28:30;10.30;99.90
30001;DHT22;16845;48.670;9.000;2022-11-15T08:30:58;10.50;99.90
30001;DHT22;16845;48.670;9.000;2022-11-15T08:33:27;10.70;99.90
30001;DHT22;16845;48.670;9.000;2022-11-15T08:35:56;10.90;99.90
30001;DHT22;16845;48.670;9.000;2022-11-15T08:38:24;11.10;99.90
30001;DHT22;16845;48.670;9.000;2022-11-15T08:40:53;11.20;99.90
30001;DHT22;16845;48.670;9.000;2022-11-15T08:43:27;11.20;99.90
30001;DHT22;16845;48.670;9.000;2022-11-15T08:45:57;11.40;99.90
30001;DHT22;16845;48.670;9.000;2022-11-15T08:48:25;11.60;99.90
30001;DHT22;16845;48.670;9.000;2022-11-15T08:50:54;11.80;99.90
30001;DHT22;16845;48.670;9.000;2022-11-15T08:53:22;11.90;99.90
30001;DHT22;16845;48.670;9.000;2022-11-15T08:55:50;12.30;99.90
30001;DHT22;16845;48.670;9.000;2022-11-15T08:58:18;12.30;99.90
30001;DHT22;16845;48.670;9.000;2022-11-15T09:00:46;12.40;99.90
30001;DHT22;16845;48.670;9.000;2022-11-15T09:03:15;12.60;99.90
30001;DHT22;16845;48.670;9.000;2022-11-15T09:05:43;12.70;99.90
30001;DHT22;16845;48.670;9.000;2022-11-15T09:08:11;12.70;99.90
30001;DHT22;16845;48.670;9.000;2022-11-15T09:11:02;12.70;99.90
30001;DHT22;16845;48.670;9.000;2022-11-15T09:13:30;12.60;99.90
30001;DHT22;16845;48.670;9.000;2022-11-15T09:15:59;12.70;99.90
30001;DHT22;16845;48.670;9.000;2022-11-15T09:18:28;12.70;99.90
30001;DHT22;16845;48.670;9.000;2022-11-15T09:20:57;12.90;99.90
30001;DHT22;16845;48.670;9.000;2022-11-15T09:23:25;13.10;99.90
30001;DHT22;16845;48.670;9.000;2022-11-15T09:25:59;13.30;99.90
30001;DHT22;16845;48.670;9.000;2022-11-15T09:28:27;13.40;99.90
30001;DHT22;16845;48.670;9.000;2022-11-15T09:30:57;13.50;99.90
30001;DHT22;16845;48.670;9.000;2022-11-15T09:33:27;13.50;99.90
30001;DHT22;16845;48.670;9.000;2022-11-15T09:36:00;13.60;99.90
30001;DHT22;16845;48.670;9.000;2022-11-15T09:38:28;13.70;99.90
30001;DHT22;16845;48.670;9.000;2022-11-15T09:41:22;13.70;99.90
30001;DHT22;16845;48.670;9.000;2022-11-15T09:44:00;14.00;99.90
30001;DHT22;16845;48.670;9.000;2022-11-15T09:46:38;14.00;99.90
30001;DHT22;16845;48.670;9.000;2022-11-15T09:49:13;14.20;99.90
30001;DHT22;16845;48.670;9.000;2022-11-15T09:51:44;14.10;99.90
30001;DHT22;16845;48.670;9.000;2022-11-15T09:54:21;13.80;99.90
30001;DHT22;16845;48.670;9.000;2022-11-15T09:57:13;13.60;99.90
30001;DHT22;16845;48.670;9.000;2022-11-15T09:59:59;13.50;99.90
30001;DHT22;16845;48.670;9.000;2022-11-15T10:03:09;13.50;99.90
30001;DHT22;16845;48.670;9.000;2022-11-15T10:05:40;13.60;99.90
30001;DHT22;16845;48.670;9.000;2022-11-15T10:08:22;13.60;99.90
30001;DHT22;16845;48.670;9.000;2022-11-15T10:10:56;13.60;99.90
30001;DHT22;16845;48.670;9.000;2022-11-15T10:13:46;13.50;99.90
30001;DHT22;16845;48.670;9.000;2022-11-15T10:16:48;13.50;99.90
30001;DHT22;16845;48.670;9.000;2022-11-15T10:19:26;13.50;99.90
30001;DHT22;16845;48.670;9.000;2022-11-15T10:22:05;13.50;99.90
30001;DHT22;16845;48.670;9.000;2022-11-15T10:24:41;13.50;99.90
30001;DHT22;16845;48.670;9.000;2022-11-15T10:27:13;13.50;99.90
30001;DHT22;16845;48.670;9.000;2022-11-15T10:29:43;13.50;99.90
30001;DHT22;16845;48.670;9.000;2022-11-15T10:32:13;13.30;99.90
30001;DHT22;16845;48.670;9.000;2022-11-15T10:34:41;13.30;99.90
30001;DHT22;16845;48.670;9.000;2022-11-15T10:37:11;13.50;99.90
30001;DHT22;16845;48.670;9.000;2022-11-15T10:39:39;13.50;99.90
30001;DHT22;16845;48.670;9.000;2022-11-15T10:42:18;13.50;99.90
30001;DHT22;16845;48.670;9.000;2022-11-15T10:44:46;13.30;99.90
30001;DHT22;16845;48.670;9.000;2022-11-15T10:47:23;13.40;99.90
30001;DHT22;16845;48.670;9.000;2022-11-15T10:50:03;13.20;99.90
30001;DHT22;16845;48.670;9.000;2022-11-15T10:52:34;13.10;99.90
30001;DHT22;16845;48.670;9.000;2022-11-15T10:55:20;13.20;99.90
30001;DHT22;16845;48.670;9.000;2022-11-15T10:57:51;13.20;99.90
30001;DHT22;16845;48.670;9.000;2022-11-15T11:00:40;13.10;99.90
30001;DHT22;16845;48.670;9.000;2022-11-15T11:03:27;13.10;99.90
30001;DHT22;16845;48.670;9.000;2022-11-15T11:06:07;13.20;99.90
30001;DHT22;16845;48.670;9.000;2022-11-15T11:08:38;13.20;99.90
30001;DHT22;16845;48.670;9.000;2022-11-15T11:11:07;13.20;99.90
30001;DHT22;16845;48.670;9.000;2022-11-15T11:13:36;13.30;99.90
30001;DHT22;16845;48.670;9.000;2022-11-15T11:19:33;13.30;99.90
30001;DHT22;16845;48.670;9.000;2022-11-15T11:22:09;13.40;99.90
30001;DHT22;16845;48.670;9.000;2022-11-15T11:24:45;13.40;99.90
30001;DHT22;16845;48.670;9.000;2022-11-15T11:27:23;13.60;99.90
30001;DHT22;16845;48.670;9.000;2022-11-15T11:30:03;13.60;99.90
30001;DHT22;16845;48.670;9.000;2022-11-15T11:32:53;13.70;99.90
30001;DHT22;16845;48.670;9.000;2022-11-15T11:35:26;13.70;99.90
30001;DHT22;16845;48.670;9.000;2022-11-15T11:38:06;13.80;99.90
30001;DHT22;16845;48.670;9.000;2022-11-15T11:40:49;13.90;99.90
30001;DHT22;16845;48.670;9.000;2022-11-15T11:43:25;13.90;99.90
30001;DHT22;16845;48.670;9.000;2022-11-15T11:46:10;14.00;99.90
30001;DHT22;16845;48.670;9.000;2022-11-15T11:48:42;14.10;99.90
30001;DHT22;16845;48.670;9.000;2022-11-15T11:51:15;14.20;99.90
30001;DHT22;16845;48.670;9.000;2022-11-15T11:53:50;14.30;99.90
30001;DHT22;16845;48.670;9.000;2022-11-15T11:56:26;14.40;99.90
30001;DHT22;16845;48.670;9.000;2022-11-15T11:58:59;14.50;99.90
30001;DHT22;16845;48.670;9.000;2022-11-15T12:01:32;14.50;99.90
30001;DHT22;16845;48.670;9.000;2022-11-15T12:04:04;14.40;99.90
30001;DHT22;16845;48.670;9.000;2022-11-15T12:06:36;14.20;99.90
30001;DHT22;16845;48.670;9.000;2022-11-15T12:09:13;14.00;99.90
30001;DHT22;16845;48.670;9.000;2022-11-15T12:11:51;14.00;99.90
30001;DHT22;16845;48.670;9.000;2022-11-15T12:14:27;14.00;99.90
30001;DHT22;16845;48.670;9.000;2022-11-15T12:16:57;13.90;99.90
30001;DHT22;16845;48.670;9.000;2022-11-15T12:19:25;13.80;99.90
30001;DHT22;16845;48.670;9.000;2022-11-15T12:21:58;13.60;99.90
30001;DHT22;16845;48.670;9.000;2022-11-15T12:24:30;13.60;99.90
30001;DHT22;16845;48.670;9.000;2022-11-15T12:27:05;13.50;99.90
30001;DHT22;16845;48.670;9.000;2022-11-15T12:29:36;13.40;99.90
30001;DHT22;16845;48.670;9.000;2022-11-15T12:32:06;13.20;99.90
30001;DHT22;16845;48.670;9.000;2022-11-15T12:34:44;13.20;99.90
30001;DHT22;16845;48.670;9.000;2022-11-15T12:40:25;13.30;99.90
30001;DHT22;16845;48.670;9.000;2022-11-15T12:46:02;13.30;99.90
30001;DHT22;16845;48.670;9.000;2022-11-15T12:48:59;13.50;99.90
30001;DHT22;16845;48.670;9.000;2022-11-15T12:54:55;13.60;99.90
30001;DHT22;16845;48.670;9.000;2022-11-15T12:57:27;13.60;99.90
30001;DHT22;16845;48.670;9.000;2022-11-15T12:59:59;13.70;99.90
30001;DHT22;16845;48.670;9.000;2022-11-15T13:02:31;13.60;99.90
30001;DHT22;16845;48.670;9.000;2022-11-15T13:08:47;13.50;99.90
30001;DHT22;16845;48.670;9.000;2022-11-15T13:11:51;13.60;99.90
30001;DHT22;16845;48.670;9.000;2022-11-15T13:14:42;13.50;99.90
30001;DHT22;16845;48.670;9.000;2022-11-15T13:17:29;13.50;99.90
30001;DHT22;16845;48.670;9.000;2022-11-15T13:20:20;13.40;99.90
30001;DHT22;16845;48.670;9.000;2022-11-15T13:22:49;13.40;99.90
30001;DHT22;16845;48.670;9.000;2022-11-15T13:28:32;13.20;99.90
30001;DHT22;16845;48.670;9.000;2022-11-15T13:31:21;13.20;99.90
30001;DHT22;16845;48.670;9.000;2022-11-15T13:33:52;13.10;99.90
30001;DHT22;16845;48.670;9.000;2022-11-15T13:36:22;13.20;99.90
30001;DHT22;16845;48.670;9.000;2022-11-15T13:38:55;13.10;99.90
30001;DHT22;16845;48.670;9.000;2022-11-15T13:41:25;13.10;99.90
30001;DHT22;16845;48.670;9.000;2022-11-15T13:43:55;13.00;99.90
30001;DHT22;16845;48.670;9.000;2022-11-15T13:46:24;13.00;99.90
30001;DHT22;16845;48.670;9.000;2022-11-15T13:48:56;13.00;99.90
30001;DHT22;16845;48.670;9.000;2022-11-15T13:51:28;12.90;99.90
30001;DHT22;16845;48.670;9.000;2022-11-15T13:54:01;12.90;99.90
30001;DHT22;16845;48.670;9.000;2022-11-15T13:56:32;12.60;99.90
30001;DHT22;16845;48.670;9.000;2022-11-15T13:59:01;12.60;99.90
30001;DHT22;16845;48.670;9.000;2022-11-15T14:01:35;12.50;99.90
30001;DHT22;16845;48.670;9.000;2022-11-15T14:04:05;12.50;99.90
30001;DHT22;16845;48.670;9.000;2022-11-15T14:06:44;12.30;99.90
30001;DHT22;16845;48.670;9.000;2022-11-15T14:09:43;12.40;99.90
30001;DHT22;16845;48.670;9.000;2022-11-15T14:12:30;12.60;99.90
30001;DHT22;16845;48.670;9.000;2022-11-15T14:15:01;12.60;99.90
30001;DHT22;16845;48.670;9.000;2022-11-15T14:17:37;12.70;99.90
30001;DHT22;16845;48.670;9.000;2022-11-15T14:20:31;12.80;99.90
30001;DHT22;16845;48.670;9.000;2022-11-15T14:23:00;12.80;99.90
30001;DHT22;16845;48.670;9.000;2022-11-15T14:25:29;12.90;99.90
30001;DHT22;16845;48.670;9.000;2022-11-15T14:28:29;13.00;99.90
30001;DHT22;16845;48.670;9.000;2022-11-15T14:31:00;12.90;99.90
30001;DHT22;16845;48.670;9.000;2022-11-15T14:33:30;12.80;99.90
30001;DHT22;16845;48.670;9.000;2022-11-15T14:36:05;12.80;99.90
30001;DHT22;16845;48.670;9.000;2022-11-15T14:38:33;12.70;99.90
30001;DHT22;16845;48.670;9.000;2022-11-15T14:41:02;12.60;99.90
30001;DHT22;16845;48.670;9.000;2022-11-15T14:43:30;12.50;99.90
30001;DHT22;16845;48.670;9.000;2022-11-15T14:45:58;12.50;99.90
30001;DHT22;16845;48.670;9.000;2022-11-15T14:48:26;12.40;99.90
30001;DHT22;16845;48.670;9.000;2022-11-15T14:50:56;12.40;99.90
30001;DHT22;16845;48.670;9.000;2022-11-15T14:53:25;12.30;99.90
30001;DHT22;16845;48.670;9.000;2022-11-15T14:55:53;12.30;99.90
30001;DHT22;16845;48.670;9.000;2022-11-15T14:58:21;12.20;99.90
30001;DHT22;16845;48.670;9.000;2022-11-15T15:00:49;12.20;99.90
30001;DHT22;16845;48.670;9.000;2022-11-15T15:03:17;12.20;99.90
30001;DHT22;16845;48.670;9.000;2022-11-15T15:05:45;12.10;99.90
30001;DHT22;16845;48.670;9.000;2022-11-15T15:08:13;12.10;99.90
30001;DHT22;16845;48.670;9.000;2022-11-15T15:10:44;12.10;99.90
30001;DHT22;16845;48.670;9.000;2022-11-15T15:13:16;12.00;99.90
30001;DHT22;16845;48.670;9.000;2022-11-15T15:15:45;12.00;99.90
30001;DHT22;16845;48.670;9.000;2022-11-15T15:18:13;11.90;99.90
30001;DHT22;16845;48.670;9.000;2022-11-15T15:20:43;11.90;99.90
30001;DHT22;16845;48.670;9.000;2022-11-15T15:23:15;11.90;99.90
30001;DHT22;16845;48.670;9.000;2022-11-15T15:25:45;11.80;99.90
30001;DHT22;16845;48.670;9.000;2022-11-15T15:28:14;11.80;99.90
30001;DHT22;16845;48.670;9.000;2022-11-15T15:30:43;11.80;99.90
30001;DHT22;16845;48.670;9.000;2022-11-15T15:33:11;11.70;99.90
30001;DHT22;16845;48.670;9.000;2022-11-15T15:35:39;11.60;99.90
30001;DHT22;16845;48.670;9.000;2022-11-15T15:38:09;11.40;99.90
30001;DHT22;16845;48.670;9.000;2022-11-15T15:40:38;11.40;99.90
30001;DHT22;16845;48.670;9.000;2022-11-15T15:43:08;11.30;99.90
30001;DHT22;16845;48.670;9.000;2022-11-15T15:45:37;11.40;99.90
30001;DHT22;16845;48.670;9.000;2022-11-15T15:48:07;11.40;99.90
30001;DHT22;16845;48.670;9.000;2022-11-15T15:50:36;11.40;99.90
30001;DHT22;16845;48.670;9.000;2022-11-15T15:53:04;11.30;99.90
30001;DHT22;16845;48.670;9.000;2022-11-15T15:55:34;11.30;99.90
30001;DHT22;16845;48.670;9.000;2022-11-15T15:58:02;11.30;99.90
30001;DHT22;16845;48.670;9.000;2022-11-15T16:00:32;11.30;99.90
30001;DHT22;16845;48.670;9.000;2022-11-15T16:03:00;11.30;99.90
30001;DHT22;16845;48.670;9.000;2022-11-15T16:05:28;11.20;99.90
30001;DHT22;16845;48.670;9.000;2022-11-15T16:07:56;11.10;99.90
30001;DHT22;16845;48.670;9.000;2022-11-15T16:10:26;11.10;99.90
30001;DHT22;16845;48.670;9.000;2022-11-15T16:12:55;11.10;99.90
30001;DHT22;16845;48.670;9.000;2022-11-15T16:15:25;11.10;99.90
30001;DHT22;16845;48.670;9.000;2022-11-15T16:17:57;11.10;99.90
30001;DHT22;16845;48.670;9.000;2022-11-15T16:20:36;11.10;99.90
30001;DHT22;16845;48.670;9.000;2022-11-15T16:23:06;11.00;99.90
30001;DHT22;16845;48.670;9.000;2022-11-15T16:25:39;11.10;99.90
30001;DHT22;16845;48.670;9.000;2022-11-15T16:28:19;11.10;99.90